createdAt,value
2017-08-28T00:00:27.024Z,83.10
2017-08-28T00:02:54.528Z,83.80
2017-08-28T00:05:22.049Z,83.50
2017-08-28T00:07:49.531Z,83.80
2017-08-28T00:10:17.073Z,84.00
2017-08-28T00:12:44.626Z,84.10
2017-08-28T00:15:12.222Z,84.30
2017-08-28T00:17:39.703Z,84.60
2017-08-28T00:20:07.193Z,84.80
2017-08-28T00:22:34.788Z,84.90
2017-08-28T00:25:02.308Z,85.00
2017-08-28T00:27:29.867Z,85.30
2017-08-28T00:29:57.330Z,85.60
2017-08-28T00:32:24.892Z,85.80
2017-08-28T00:34:53.159Z,86.20
2017-08-28T00:37:21.440Z,86.20
2017-08-28T00:39:48.926Z,85.20
2017-08-28T00:42:16.446Z,85.00
2017-08-28T00:44:44.011Z,85.50
2017-08-28T00:47:11.482Z,85.90
2017-08-28T00:49:39.725Z,86.40
2017-08-28T00:52:07.199Z,86.30
2017-08-28T00:54:35.458Z,86.30
2017-08-28T00:57:03.035Z,86.20
2017-08-28T00:59:31.316Z,86.90
2017-08-28T01:01:59.340Z,86.90
2017-08-28T01:04:27.562Z,86.60
2017-08-28T01:06:55.798Z,87.20
2017-08-28T01:09:23.939Z,87.60
2017-08-28T01:11:51.454Z,88.10
2017-08-28T01:14:19.015Z,88.60
2017-08-28T01:16:46.576Z,88.50
2017-08-28T01:19:14.265Z,88.70
2017-08-28T01:21:41.720Z,88.50
2017-08-28T01:24:09.191Z,87.90
2017-08-28T01:26:36.748Z,88.20
2017-08-28T01:29:04.224Z,88.70
2017-08-28T01:31:31.728Z,88.80
2017-08-28T01:33:59.197Z,88.00
2017-08-28T01:36:26.734Z,88.20
2017-08-28T01:38:54.215Z,88.30
2017-08-28T01:41:21.676Z,88.50
2017-08-28T01:43:49.134Z,88.20
2017-08-28T01:46:16.674Z,88.10
2017-08-28T01:48:44.224Z,88.80
2017-08-28T01:51:11.780Z,90.00
2017-08-28T01:53:39.343Z,90.00
2017-08-28T01:56:06.803Z,90.20
2017-08-28T01:58:34.270Z,90.20
2017-08-28T02:01:01.752Z,89.80
2017-08-28T02:03:29.854Z,90.20
2017-08-28T02:05:57.303Z,90.50
2017-08-28T02:08:24.789Z,90.20
2017-08-28T02:10:52.240Z,90.00
2017-08-28T02:13:19.712Z,90.30
2017-08-28T02:15:47.194Z,90.40
2017-08-28T02:18:14.695Z,90.40
2017-08-28T02:20:42.166Z,90.40
2017-08-28T02:23:09.646Z,90.60
2017-08-28T02:25:37.114Z,90.20
2017-08-28T02:28:04.680Z,90.60
2017-08-28T02:30:32.148Z,90.90
2017-08-28T02:32:59.603Z,91.00
2017-08-28T02:35:27.070Z,90.80
2017-08-28T02:37:54.580Z,90.90
2017-08-28T02:40:22.056Z,91.10
2017-08-28T02:42:49.519Z,91.10
2017-08-28T02:45:16.983Z,91.00
2017-08-28T02:47:44.451Z,90.80
2017-08-28T02:50:11.911Z,91.00
2017-08-28T02:52:39.374Z,91.20
2017-08-28T02:55:07.295Z,91.20
2017-08-28T02:57:36.137Z,91.50
2017-08-28T03:00:04.542Z,91.60
2017-08-28T03:02:33.457Z,91.40
2017-08-28T03:05:01.230Z,91.70
2017-08-28T03:07:29.274Z,91.90
2017-08-28T03:09:56.801Z,92.00
2017-08-28T03:12:24.266Z,91.60
2017-08-28T03:14:51.732Z,91.50
2017-08-28T03:17:19.234Z,91.50
2017-08-28T03:19:46.891Z,91.40
2017-08-28T03:22:14.434Z,91.60
2017-08-28T03:24:41.915Z,91.40
2017-08-28T03:27:09.451Z,91.50
2017-08-28T03:29:36.911Z,91.90
2017-08-28T03:32:04.496Z,92.40
2017-08-28T03:34:32.022Z,91.80
2017-08-28T03:37:00.140Z,92.00
2017-08-28T03:39:27.625Z,92.00
2017-08-28T03:41:55.086Z,92.30
2017-08-28T03:44:22.551Z,92.50
2017-08-28T03:46:50.031Z,92.60
2017-08-28T03:49:17.494Z,92.30
2017-08-28T03:51:45.735Z,92.20
2017-08-28T03:54:13.211Z,92.20
2017-08-28T03:56:40.688Z,92.20
2017-08-28T03:59:08.152Z,92.60
2017-08-28T04:01:36.487Z,92.70
2017-08-28T04:04:03.957Z,92.50
2017-08-28T04:06:31.414Z,92.50
2017-08-28T04:08:58.895Z,92.60
2017-08-28T04:11:26.359Z,92.60
2017-08-28T04:13:53.829Z,92.20
2017-08-28T04:16:21.301Z,92.50
2017-08-28T04:18:48.763Z,92.70
2017-08-28T04:21:16.238Z,92.70
2017-08-28T04:23:43.714Z,92.70
2017-08-28T04:26:11.276Z,92.60
2017-08-28T04:28:38.839Z,92.60
2017-08-28T04:31:06.348Z,92.90
2017-08-28T04:33:33.895Z,93.00
2017-08-28T04:36:01.404Z,92.80
2017-08-28T04:38:28.888Z,92.80
2017-08-28T04:40:56.407Z,92.80
2017-08-28T04:43:23.848Z,92.90
2017-08-28T04:45:51.482Z,92.70
2017-08-28T04:48:18.987Z,92.80
2017-08-28T04:50:46.467Z,92.80
2017-08-28T04:53:13.964Z,92.80
2017-08-28T04:55:41.457Z,92.60
2017-08-28T04:58:08.925Z,92.80
2017-08-28T05:00:36.488Z,93.00
2017-08-28T05:03:04.724Z,93.40
2017-08-28T05:05:32.217Z,93.40
2017-08-28T05:07:59.687Z,93.50
2017-08-28T05:10:27.155Z,93.70
2017-08-28T05:12:54.616Z,93.60
2017-08-28T05:15:22.159Z,93.60
2017-08-28T05:17:50.482Z,93.80
2017-08-28T05:20:17.951Z,94.10
2017-08-28T05:22:45.430Z,94.00
2017-08-28T05:25:12.901Z,93.80
2017-08-28T05:27:40.757Z,94.00
2017-08-28T05:30:08.303Z,93.60
2017-08-28T05:32:35.762Z,93.60
2017-08-28T05:35:03.341Z,93.70
2017-08-28T05:37:31.698Z,93.90
2017-08-28T05:39:59.679Z,93.90
2017-08-28T05:42:27.227Z,94.00
2017-08-28T05:44:54.804Z,94.20
2017-08-28T05:47:22.272Z,94.10
2017-08-28T05:49:50.517Z,93.60
2017-08-28T05:52:18.071Z,93.60
2017-08-28T05:54:45.635Z,93.90
2017-08-28T05:57:13.119Z,93.90
2017-08-28T05:59:40.651Z,94.00
2017-08-28T06:02:08.119Z,93.90
2017-08-28T06:04:35.668Z,93.90
2017-08-28T06:07:03.596Z,94.00
2017-08-28T06:09:31.102Z,94.10
2017-08-28T06:11:58.593Z,94.00
2017-08-28T06:14:26.060Z,94.00
2017-08-28T06:16:53.555Z,93.90
2017-08-28T06:19:21.127Z,93.80
2017-08-28T06:21:48.741Z,93.60
2017-08-28T06:24:16.203Z,93.50
2017-08-28T06:26:44.007Z,93.70
2017-08-28T06:29:11.485Z,93.60
2017-08-28T06:31:38.986Z,93.30
2017-08-28T06:34:06.475Z,93.30
2017-08-28T06:36:33.988Z,93.20
2017-08-28T06:39:01.485Z,93.00
2017-08-28T06:41:29.049Z,92.80
2017-08-28T06:43:56.619Z,92.10
2017-08-28T06:46:24.098Z,90.30
2017-08-28T06:48:52.114Z,85.80
2017-08-28T06:51:19.612Z,83.00
2017-08-28T06:53:47.219Z,81.00
2017-08-28T06:56:14.703Z,78.50
2017-08-28T06:58:42.482Z,76.30
2017-08-28T07:01:10.030Z,74.70
2017-08-28T07:03:37.641Z,73.80
2017-08-28T07:06:05.124Z,72.70
2017-08-28T07:08:32.608Z,73.30
2017-08-28T07:11:00.072Z,73.00
2017-08-28T07:13:27.598Z,73.80
2017-08-28T07:15:55.084Z,74.00
2017-08-28T07:18:22.643Z,73.30
2017-08-28T07:20:50.196Z,74.80
2017-08-28T07:23:17.664Z,75.30
2017-08-28T07:25:45.451Z,76.00
2017-08-28T07:28:12.976Z,76.20
2017-08-28T07:30:40.531Z,78.50
2017-08-28T07:33:09.212Z,79.80
2017-08-28T07:35:36.887Z,80.00
2017-08-28T07:38:04.462Z,79.80
2017-08-28T07:40:31.926Z,79.70
2017-08-28T07:42:59.402Z,76.70
2017-08-28T07:45:26.999Z,78.10
2017-08-28T07:47:54.491Z,78.30
2017-08-28T07:50:23.156Z,77.60
2017-08-28T07:52:50.707Z,77.50
2017-08-28T07:55:18.192Z,77.80
2017-08-28T07:57:45.706Z,76.60
2017-08-28T08:00:13.203Z,77.40
2017-08-28T08:02:40.698Z,78.10
2017-08-28T08:05:08.196Z,76.70
2017-08-28T08:07:35.675Z,77.00
2017-08-28T08:10:03.934Z,75.90
2017-08-28T08:12:31.488Z,75.90
2017-08-28T08:14:58.967Z,75.80
2017-08-28T08:17:26.434Z,75.00
2017-08-28T08:19:53.962Z,73.90
2017-08-28T08:22:21.526Z,73.40
2017-08-28T08:24:48.996Z,73.50
2017-08-28T08:27:16.567Z,74.20
2017-08-28T08:29:44.096Z,71.70
2017-08-28T08:32:11.652Z,70.10
2017-08-28T08:34:39.147Z,69.30
2017-08-28T08:37:06.678Z,66.30
2017-08-28T08:39:35.506Z,65.50
2017-08-28T08:42:02.993Z,65.50
2017-08-28T08:44:30.611Z,66.50
2017-08-28T08:46:58.078Z,64.80
2017-08-28T08:49:25.903Z,65.70
2017-08-28T08:51:53.397Z,67.10
2017-08-28T08:54:20.888Z,67.00
2017-08-28T08:56:48.622Z,67.10
2017-08-28T08:59:16.099Z,67.60
2017-08-28T09:01:43.675Z,68.00
2017-08-28T09:04:11.169Z,66.80
2017-08-28T09:06:38.729Z,66.70
2017-08-28T09:09:06.211Z,65.10
2017-08-28T09:11:33.738Z,64.60
2017-08-28T09:14:01.216Z,64.00
2017-08-28T09:16:28.730Z,63.10
2017-08-28T09:18:56.199Z,59.50
2017-08-28T09:21:23.752Z,59.20
2017-08-28T09:23:51.225Z,59.40
2017-08-28T09:26:18.758Z,60.90
2017-08-28T09:28:46.236Z,59.40
2017-08-28T09:31:14.975Z,59.30
2017-08-28T09:33:42.435Z,59.30
2017-08-28T09:36:09.984Z,60.20
2017-08-28T09:38:38.404Z,59.20
2017-08-28T09:41:05.884Z,59.10
2017-08-28T09:43:33.423Z,58.40
2017-08-28T09:46:00.980Z,57.80
2017-08-28T09:48:28.526Z,56.50
2017-08-28T09:50:56.100Z,57.40
2017-08-28T09:53:23.675Z,56.40
2017-08-28T09:55:51.317Z,56.30
2017-08-28T09:58:18.784Z,54.40
2017-08-28T10:00:46.251Z,55.90
2017-08-28T10:03:13.796Z,56.20
2017-08-28T10:05:41.255Z,57.10
2017-08-28T10:08:08.719Z,56.70
2017-08-28T10:10:36.227Z,56.20
2017-08-28T10:13:03.712Z,56.40
2017-08-28T10:15:31.907Z,55.40
2017-08-28T10:18:00.293Z,56.30
2017-08-28T10:20:27.829Z,54.90
2017-08-28T10:22:57.132Z,54.90
2017-08-28T10:25:28.344Z,53.50
2017-08-28T10:27:56.637Z,53.50
2017-08-28T10:30:25.603Z,53.90
2017-08-28T10:32:53.121Z,53.50
2017-08-28T10:35:20.611Z,54.80
2017-08-28T10:37:48.105Z,52.60
2017-08-28T10:40:15.575Z,53.00
2017-08-28T10:42:43.984Z,52.60
2017-08-28T10:45:11.495Z,52.60
2017-08-28T10:47:38.980Z,50.50
2017-08-28T10:50:06.538Z,50.90
2017-08-28T10:52:33.994Z,49.50
2017-08-28T10:55:01.527Z,50.80
2017-08-28T10:57:29.087Z,51.10
2017-08-28T10:59:56.555Z,50.80
2017-08-28T11:02:24.104Z,51.10
2017-08-28T11:04:51.697Z,52.30
2017-08-28T11:07:19.400Z,51.80
2017-08-28T11:09:46.883Z,50.60
2017-08-28T11:12:14.475Z,51.10
2017-08-28T11:14:42.516Z,49.90
2017-08-28T11:17:10.029Z,49.30
2017-08-28T11:19:37.503Z,48.30
2017-08-28T11:22:05.148Z,48.30
2017-08-28T11:24:32.644Z,50.30
2017-08-28T11:27:00.115Z,48.10
2017-08-28T11:29:27.634Z,49.20
2017-08-28T11:31:55.119Z,46.90
2017-08-28T11:34:23.129Z,47.00
2017-08-28T11:36:50.644Z,46.10
2017-08-28T11:39:18.202Z,47.30
2017-08-28T11:41:45.682Z,45.30
2017-08-28T11:44:13.143Z,46.30
2017-08-28T11:46:40.608Z,46.30
2017-08-28T11:49:08.087Z,46.50
2017-08-28T11:51:35.542Z,47.00
2017-08-28T11:54:03.043Z,48.50
2017-08-28T11:56:30.599Z,47.30
2017-08-28T11:58:58.574Z,47.10
2017-08-28T12:01:26.127Z,47.50
2017-08-28T12:03:53.684Z,47.50
2017-08-28T12:06:21.146Z,47.70
2017-08-28T12:08:48.633Z,46.80
2017-08-28T12:11:16.376Z,46.80
2017-08-28T12:13:44.756Z,47.20
2017-08-28T12:16:12.227Z,48.40
2017-08-28T12:18:40.474Z,47.40
2017-08-28T12:21:08.049Z,47.30
2017-08-28T12:23:36.199Z,46.60
2017-08-28T12:26:03.778Z,46.80
2017-08-28T12:28:31.268Z,48.00
2017-08-28T12:30:58.807Z,47.60
2017-08-28T12:33:27.797Z,48.10
2017-08-28T12:35:56.775Z,47.20
2017-08-28T12:38:25.414Z,48.20
2017-08-28T12:40:53.957Z,48.10
2017-08-28T12:43:22.580Z,48.40
2017-08-28T12:45:52.843Z,47.10
2017-08-28T12:48:20.766Z,47.90
2017-08-28T12:50:48.664Z,48.50
2017-08-28T12:53:16.621Z,47.80
2017-08-28T12:55:44.088Z,47.20
2017-08-28T12:58:11.653Z,48.00
2017-08-28T13:00:39.832Z,48.30
2017-08-28T13:03:07.306Z,48.30
2017-08-28T13:05:34.816Z,47.90
2017-08-28T13:08:02.308Z,47.80
2017-08-28T13:10:29.788Z,47.40
2017-08-28T13:12:57.258Z,46.90
2017-08-28T13:15:25.485Z,47.80
2017-08-28T13:17:53.048Z,47.00
2017-08-28T13:20:20.538Z,46.80
2017-08-28T13:22:48.892Z,47.10
2017-08-28T13:25:16.365Z,48.90
2017-08-28T13:27:43.897Z,48.00
2017-08-28T13:30:11.401Z,47.00
2017-08-28T13:32:39.349Z,46.80
2017-08-28T13:35:06.909Z,46.90
2017-08-28T13:37:34.375Z,46.60
2017-08-28T13:40:02.076Z,46.10
2017-08-28T13:42:29.558Z,46.50
2017-08-28T13:44:57.095Z,45.90
2017-08-28T13:47:24.580Z,46.10
2017-08-28T13:49:52.836Z,45.70
2017-08-28T13:52:20.420Z,45.70
2017-08-28T13:54:47.907Z,47.00
2017-08-28T13:57:15.424Z,47.10
2017-08-28T13:59:42.909Z,45.90
2017-08-28T14:02:10.367Z,46.00
2017-08-28T14:04:37.891Z,46.10
2017-08-28T14:07:05.359Z,47.00
2017-08-28T14:09:32.912Z,45.50
2017-08-28T14:12:00.435Z,45.50
2017-08-28T14:14:28.072Z,46.10
2017-08-28T14:16:55.576Z,46.00
2017-08-28T14:19:23.437Z,47.00
2017-08-28T14:21:50.905Z,47.70
2017-08-28T14:24:18.385Z,46.20
2017-08-28T14:26:45.874Z,47.20
2017-08-28T14:29:13.373Z,46.30
2017-08-28T14:31:40.844Z,46.50
2017-08-28T14:34:08.388Z,46.20
2017-08-28T14:36:35.855Z,46.50
2017-08-28T14:39:04.084Z,45.80
2017-08-28T14:41:31.901Z,45.70
2017-08-28T14:43:59.479Z,45.10
2017-08-28T14:46:27.207Z,46.20
2017-08-28T14:48:54.768Z,45.30
2017-08-28T14:51:22.228Z,46.30
2017-08-28T14:53:49.705Z,46.20
2017-08-28T14:56:17.235Z,46.60
2017-08-28T14:58:44.703Z,46.40
2017-08-28T15:01:12.454Z,45.90
2017-08-28T15:03:39.924Z,45.40
2017-08-28T15:06:07.403Z,45.70
2017-08-28T15:08:35.544Z,45.80
2017-08-28T15:11:03.173Z,46.20
2017-08-28T15:13:30.661Z,46.00
2017-08-28T15:15:58.475Z,46.30
2017-08-28T15:18:25.948Z,46.20
2017-08-28T15:20:53.443Z,45.10
2017-08-28T15:23:21.374Z,46.70
2017-08-28T15:25:48.880Z,48.00
2017-08-28T15:28:17.515Z,47.80
2017-08-28T15:30:45.005Z,47.70
2017-08-28T15:33:12.532Z,48.90
2017-08-28T15:35:40.057Z,49.40
2017-08-28T15:38:07.556Z,49.20
2017-08-28T15:40:35.115Z,49.20
2017-08-28T15:43:03.829Z,50.70
2017-08-28T15:45:31.687Z,50.60
2017-08-28T15:47:59.355Z,50.20
2017-08-28T15:50:27.179Z,50.80
2017-08-28T15:52:55.691Z,52.00
2017-08-28T15:55:23.175Z,52.00
2017-08-28T15:57:50.645Z,51.40
2017-08-28T16:00:18.183Z,52.50
2017-08-28T16:02:45.643Z,52.20
2017-08-28T16:05:13.891Z,52.20
2017-08-28T16:07:41.455Z,52.20
2017-08-28T16:10:08.980Z,52.60
2017-08-28T16:12:36.479Z,52.10
2017-08-28T16:15:03.943Z,53.10
2017-08-28T16:17:31.422Z,53.70
2017-08-28T16:19:58.908Z,51.90
2017-08-28T16:22:26.380Z,52.50
2017-08-28T16:24:53.857Z,52.40
2017-08-28T16:27:21.636Z,53.60
2017-08-28T16:29:49.119Z,51.70
2017-08-28T16:32:16.589Z,51.50
2017-08-28T16:34:44.082Z,52.10
2017-08-28T16:37:11.804Z,52.50
2017-08-28T16:39:39.308Z,52.70
2017-08-28T16:42:06.790Z,52.60
2017-08-28T16:44:34.259Z,53.00
2017-08-28T16:47:01.732Z,53.80
2017-08-28T16:49:29.199Z,53.10
2017-08-28T16:51:56.712Z,53.20
2017-08-28T16:54:24.977Z,53.20
2017-08-28T16:56:52.534Z,53.10
2017-08-28T16:59:20.093Z,53.60
2017-08-28T17:01:47.556Z,54.10
2017-08-28T17:04:15.263Z,54.40
2017-08-28T17:06:42.764Z,55.50
2017-08-28T17:09:10.310Z,54.20
2017-08-28T17:11:38.112Z,54.70
2017-08-28T17:14:05.592Z,55.10
2017-08-28T17:16:33.099Z,55.50
2017-08-28T17:19:00.888Z,56.10
2017-08-28T17:21:28.384Z,55.80
2017-08-28T17:23:55.875Z,56.10
2017-08-28T17:26:23.339Z,56.70
2017-08-28T17:28:50.803Z,56.90
2017-08-28T17:31:18.277Z,57.10
2017-08-28T17:33:45.752Z,57.90
2017-08-28T17:36:13.216Z,57.90
2017-08-28T17:38:40.742Z,57.50
2017-08-28T17:41:08.300Z,57.70
2017-08-28T17:43:36.269Z,58.50
2017-08-28T17:46:03.839Z,58.00
2017-08-28T17:48:31.572Z,58.60
2017-08-28T17:50:59.055Z,58.40
2017-08-28T17:53:26.515Z,58.50
2017-08-28T17:55:54.050Z,59.10
2017-08-28T17:58:21.520Z,59.90
2017-08-28T18:00:49.778Z,60.00
2017-08-28T18:03:18.055Z,60.50
2017-08-28T18:05:45.512Z,60.90
2017-08-28T18:08:12.976Z,61.70
2017-08-28T18:10:41.240Z,62.80
2017-08-28T18:13:08.791Z,62.80
2017-08-28T18:15:36.283Z,62.50
2017-08-28T18:18:03.757Z,62.90
2017-08-28T18:20:31.253Z,63.00
2017-08-28T18:22:58.793Z,62.20
2017-08-28T18:25:26.262Z,63.00
2017-08-28T18:27:53.770Z,62.40
2017-08-28T18:30:21.230Z,63.10
2017-08-28T18:32:48.755Z,63.40
2017-08-28T18:35:16.215Z,64.10
2017-08-28T18:37:43.682Z,64.70
2017-08-28T18:40:11.224Z,65.40
2017-08-28T18:42:38.788Z,65.90
2017-08-28T18:45:06.249Z,66.30
2017-08-28T18:47:33.844Z,66.20
2017-08-28T18:50:01.316Z,67.40
2017-08-28T18:52:29.692Z,68.60
2017-08-28T18:54:57.243Z,68.50
2017-08-28T18:57:24.687Z,68.90
2017-08-28T18:59:52.208Z,69.50
2017-08-28T19:02:19.696Z,70.10
2017-08-28T19:04:47.171Z,70.60
2017-08-28T19:07:14.910Z,71.10
2017-08-28T19:09:42.384Z,71.40
2017-08-28T19:12:10.116Z,71.50
2017-08-28T19:14:37.589Z,71.90
2017-08-28T19:17:05.072Z,72.40
2017-08-28T19:19:32.608Z,72.80
2017-08-28T19:22:00.087Z,72.80
2017-08-28T19:24:27.560Z,73.40
2017-08-28T19:26:55.070Z,73.10
2017-08-28T19:29:22.535Z,73.00
2017-08-28T19:31:50.025Z,73.80
2017-08-28T19:34:23.271Z,73.70
2017-08-28T19:36:50.783Z,73.70
2017-08-28T19:39:18.277Z,74.30
2017-08-28T19:41:45.796Z,74.50
2017-08-28T19:44:13.455Z,75.00
2017-08-28T19:46:40.966Z,74.60
2017-08-28T19:49:08.522Z,74.90
2017-08-28T19:51:36.035Z,75.20
2017-08-28T19:54:03.520Z,75.10
2017-08-28T19:56:31.015Z,75.30
2017-08-28T19:58:58.892Z,75.80
2017-08-28T20:01:26.349Z,76.30
2017-08-28T20:03:53.817Z,76.00
2017-08-28T20:06:21.540Z,75.80
2017-08-28T20:08:49.022Z,76.20
2017-08-28T20:11:16.495Z,76.30
2017-08-28T20:13:43.963Z,76.20
2017-08-28T20:16:11.462Z,76.60
2017-08-28T20:18:38.930Z,76.60
2017-08-28T20:21:06.471Z,76.80
2017-08-28T20:23:34.357Z,76.80
2017-08-28T20:26:01.901Z,77.40
2017-08-28T20:28:29.384Z,77.50
2017-08-28T20:30:56.902Z,77.60
2017-08-28T20:33:24.459Z,77.80
2017-08-28T20:35:52.020Z,78.30
2017-08-28T20:38:19.489Z,78.30
2017-08-28T20:40:46.943Z,79.50
2017-08-28T20:43:15.272Z,79.30
2017-08-28T20:45:42.752Z,79.20
2017-08-28T20:48:10.224Z,79.50
2017-08-28T20:50:37.695Z,79.60
2017-08-28T20:53:05.435Z,79.90
2017-08-28T20:55:32.955Z,80.10
2017-08-28T20:58:00.463Z,80.80
2017-08-28T21:00:28.120Z,82.20
2017-08-28T21:02:55.621Z,83.00
2017-08-28T21:05:23.924Z,83.40
2017-08-28T21:07:51.614Z,84.00
2017-08-28T21:10:19.087Z,84.70
2017-08-28T21:12:46.635Z,85.60
2017-08-28T21:15:14.111Z,85.30
2017-08-28T21:17:41.732Z,84.70
2017-08-28T21:20:09.211Z,85.40
2017-08-28T21:22:36.891Z,86.10
2017-08-28T21:25:04.358Z,86.10
2017-08-28T21:27:31.839Z,84.90
2017-08-28T21:29:59.335Z,85.60
2017-08-28T21:32:26.811Z,85.30
2017-08-28T21:34:54.360Z,84.60
2017-08-28T21:37:21.836Z,84.70
2017-08-28T21:39:49.304Z,85.10
2017-08-28T21:42:16.771Z,84.60
2017-08-28T21:44:44.295Z,84.80
2017-08-28T21:47:11.840Z,84.40
2017-08-28T21:49:39.391Z,85.00
2017-08-28T21:52:06.959Z,85.70
2017-08-28T21:54:34.436Z,86.50
2017-08-28T21:57:01.962Z,87.20
2017-08-28T21:59:29.435Z,87.20
2017-08-28T22:01:56.984Z,85.90
2017-08-28T22:04:24.547Z,86.60
2017-08-28T22:06:52.038Z,87.30
2017-08-28T22:09:19.571Z,87.60
2017-08-28T22:11:47.836Z,88.60
2017-08-28T22:14:15.311Z,87.60
2017-08-28T22:16:42.855Z,87.40
2017-08-28T22:19:11.102Z,86.80
2017-08-28T22:21:38.679Z,86.80
2017-08-28T22:24:06.223Z,87.00
2017-08-28T22:26:33.703Z,86.90
2017-08-28T22:29:01.265Z,87.20
2017-08-28T22:31:28.731Z,87.50
2017-08-28T22:33:56.199Z,87.50
2017-08-28T22:36:23.732Z,86.80
2017-08-28T22:38:51.194Z,86.60
2017-08-28T22:41:18.671Z,87.10
2017-08-28T22:43:46.205Z,87.10
2017-08-28T22:46:13.762Z,87.00
2017-08-28T22:48:41.315Z,86.80
2017-08-28T22:51:08.792Z,87.40
2017-08-28T22:53:36.259Z,87.30
2017-08-28T22:56:03.795Z,87.00
2017-08-28T22:58:31.347Z,87.00
2017-08-28T23:00:58.835Z,86.70
2017-08-28T23:03:27.152Z,87.40
2017-08-28T23:05:55.420Z,87.40
2017-08-28T23:08:22.920Z,87.40
2017-08-28T23:10:50.399Z,87.40
2017-08-28T23:13:17.873Z,89.00
2017-08-28T23:15:45.387Z,88.20
2017-08-28T23:18:12.940Z,87.80
2017-08-28T23:20:40.503Z,88.20
2017-08-28T23:23:07.979Z,88.10
2017-08-28T23:25:35.470Z,87.50
2017-08-28T23:28:02.974Z,88.10
2017-08-28T23:30:30.537Z,88.30
2017-08-28T23:32:58.612Z,88.60
2017-08-28T23:35:26.114Z,88.60
2017-08-28T23:37:53.615Z,88.60
2017-08-28T23:40:21.095Z,88.50
2017-08-28T23:42:49.336Z,87.80
2017-08-28T23:45:16.806Z,87.60
2017-08-28T23:47:44.374Z,89.00
2017-08-28T23:50:11.911Z,89.10
2017-08-28T23:52:39.370Z,89.10
2017-08-28T23:55:06.830Z,87.90
2017-08-28T23:57:34.326Z,87.80
